createdAt,value
2023-04-12T00:01:03.173Z,9.90
2023-04-12T00:03:34.291Z,9.83
2023-04-12T00:06:03.451Z,9.77
2023-04-12T00:08:35.396Z,9.74
2023-04-12T00:11:04.220Z,9.77
2023-04-12T00:13:32.189Z,9.69
2023-04-12T00:16:00.371Z,9.66
2023-04-12T00:18:28.365Z,9.60
2023-04-12T00:20:56.484Z,9.47
2023-04-12T00:23:24.412Z,9.39
2023-04-12T00:25:52.293Z,9.33
2023-04-12T00:28:20.278Z,9.29
2023-04-12T00:30:48.415Z,9.22
2023-04-12T00:33:16.246Z,9.18
2023-04-12T00:35:44.406Z,9.14
2023-04-12T00:38:12.594Z,9.07
2023-04-12T00:40:44.266Z,9.04
2023-04-12T00:43:15.733Z,9.02
2023-04-12T00:45:44.527Z,8.98
2023-04-12T00:48:13.134Z,8.94
2023-04-12T00:50:47.685Z,8.89
2023-04-12T00:53:20.508Z,8.87
2023-04-12T00:55:50.671Z,8.78
2023-04-12T00:58:19.676Z,8.73
2023-04-12T01:00:52.896Z,8.68
2023-04-12T01:03:27.833Z,8.63
2023-04-12T01:05:58.975Z,8.64
2023-04-12T01:08:48.239Z,8.61
2023-04-12T01:11:40.348Z,8.59
2023-04-12T01:14:21.102Z,8.54
2023-04-12T01:16:57.012Z,8.52
2023-04-12T01:19:34.907Z,8.50
2023-04-12T01:22:27.635Z,8.46
2023-04-12T01:25:24.289Z,8.45
2023-04-12T01:28:00.933Z,8.42
2023-04-12T01:30:31.023Z,8.42
2023-04-12T01:33:03.674Z,8.36
2023-04-12T01:35:34.986Z,8.38
2023-04-12T01:38:04.441Z,8.29
2023-04-12T01:40:33.413Z,8.32
2023-04-12T01:43:15.871Z,8.30
2023-04-12T01:45:43.968Z,8.32
2023-04-12T01:48:13.171Z,8.32
2023-04-12T01:50:47.787Z,8.25
2023-04-12T01:53:22.926Z,8.25
2023-04-12T01:55:52.946Z,8.18
2023-04-12T01:58:23.738Z,8.19
2023-04-12T02:00:52.981Z,8.19
2023-04-12T02:03:23.184Z,8.13
2023-04-12T02:05:52.824Z,8.11
2023-04-12T02:08:22.446Z,8.13
2023-04-12T02:10:51.385Z,8.11
2023-04-12T02:13:19.578Z,8.18
2023-04-12T02:15:47.676Z,8.11
2023-04-12T02:18:17.097Z,8.15
2023-04-12T02:20:45.246Z,8.11
2023-04-12T02:23:13.937Z,8.16
2023-04-12T02:25:42.623Z,8.15
2023-04-12T02:28:10.631Z,8.16
2023-04-12T02:30:38.849Z,8.13
2023-04-12T02:33:09.441Z,8.12
2023-04-12T02:35:38.197Z,8.15
2023-04-12T02:38:10.118Z,8.15
2023-04-12T02:40:42.248Z,8.11
2023-04-12T02:43:14.775Z,8.08
2023-04-12T02:45:47.034Z,8.05
2023-04-12T02:48:16.119Z,8.09
2023-04-12T02:50:44.881Z,8.09
2023-04-12T02:53:18.843Z,8.11
2023-04-12T02:55:57.413Z,8.04
2023-04-12T02:58:27.739Z,8.11
2023-04-12T03:00:57.439Z,8.12
2023-04-12T03:03:31.926Z,8.09
2023-04-12T03:06:09.164Z,8.08
2023-04-12T03:08:39.556Z,8.08
2023-04-12T03:11:07.803Z,8.09
2023-04-12T03:13:36.236Z,8.08
2023-04-12T03:16:24.848Z,8.05
2023-04-12T03:19:00.771Z,8.11
2023-04-12T03:21:30.051Z,8.11
2023-04-12T03:23:59.071Z,8.13
2023-04-12T03:26:27.305Z,8.11
2023-04-12T03:29:10.737Z,8.08
2023-04-12T03:31:41.138Z,8.08
2023-04-12T03:34:10.581Z,8.11
2023-04-12T03:36:43.153Z,8.09
2023-04-12T03:39:39.222Z,8.11
2023-04-12T03:42:15.819Z,8.04
2023-04-12T03:44:52.431Z,8.05
2023-04-12T03:47:22.675Z,8.04
2023-04-12T03:50:06.075Z,8.06
2023-04-12T03:52:39.207Z,8.04
2023-04-12T03:55:08.686Z,8.02
2023-04-12T03:57:37.882Z,7.99
2023-04-12T04:00:09.054Z,7.99
2023-04-12T04:03:03.560Z,7.99
2023-04-12T04:05:35.921Z,7.94
2023-04-12T04:08:06.982Z,7.94
2023-04-12T04:10:46.177Z,7.91
2023-04-12T04:13:14.357Z,7.90
2023-04-12T04:15:42.720Z,7.87
2023-04-12T04:18:11.656Z,7.85
2023-04-12T04:20:39.616Z,7.88
2023-04-12T04:23:10.204Z,7.84
2023-04-12T04:25:40.355Z,7.83
2023-04-12T04:28:10.508Z,7.85
2023-04-12T04:30:42.288Z,7.73
2023-04-12T04:33:19.087Z,7.78
2023-04-12T04:35:48.125Z,7.74
2023-04-12T04:38:27.150Z,7.74
2023-04-12T04:41:03.609Z,7.71
2023-04-12T04:43:47.024Z,7.74
2023-04-12T04:46:21.225Z,7.69
2023-04-12T04:48:51.875Z,7.73
2023-04-12T04:51:19.968Z,7.71
2023-04-12T04:53:48.736Z,7.74
2023-04-12T04:56:18.317Z,7.74
2023-04-12T04:58:50.806Z,7.69
2023-04-12T05:01:19.636Z,7.70
2023-04-12T05:03:51.725Z,7.71
2023-04-12T05:06:23.030Z,7.71
2023-04-12T05:08:52.497Z,7.69
2023-04-12T05:11:21.600Z,7.70
2023-04-12T05:13:52.339Z,7.71
2023-04-12T05:16:20.915Z,7.74
2023-04-12T05:18:49.285Z,7.71
2023-04-12T05:21:17.541Z,7.70
2023-04-12T05:23:47.397Z,7.73
2023-04-12T05:29:01.490Z,7.71
2023-04-12T05:31:29.588Z,7.74
2023-04-12T05:34:01.256Z,7.77
2023-04-12T05:36:34.894Z,7.74
2023-04-12T05:39:04.922Z,7.77
2023-04-12T05:41:35.734Z,7.80
2023-04-12T05:44:03.773Z,7.81
2023-04-12T05:46:33.638Z,7.81
2023-04-12T05:49:04.937Z,7.78
2023-04-12T05:51:41.042Z,7.80
2023-04-12T05:54:21.103Z,7.81
2023-04-12T05:56:50.732Z,7.83
2023-04-12T05:59:19.857Z,7.78
2023-04-12T06:01:48.866Z,7.77
2023-04-12T06:04:19.274Z,7.81
2023-04-12T06:06:47.897Z,7.81
2023-04-12T06:09:16.353Z,7.81
2023-04-12T06:11:45.119Z,7.81
2023-04-12T06:14:13.852Z,7.80
2023-04-12T06:16:42.149Z,7.85
2023-04-12T06:19:11.270Z,7.83
2023-04-12T06:21:39.363Z,7.87
2023-04-12T06:24:08.327Z,7.85
2023-04-12T06:26:40.020Z,7.91
2023-04-12T06:29:08.942Z,7.90
2023-04-12T06:31:37.323Z,7.87
2023-04-12T06:34:05.590Z,7.90
2023-04-12T06:36:34.159Z,7.90
2023-04-12T06:39:02.218Z,7.94
2023-04-12T06:41:31.097Z,7.98
2023-04-12T06:44:02.277Z,7.97
2023-04-12T06:46:30.904Z,7.99
2023-04-12T06:48:59.234Z,8.02
2023-04-12T06:51:28.225Z,8.02
2023-04-12T06:53:57.861Z,8.01
2023-04-12T06:56:26.178Z,8.01
2023-04-12T06:58:54.331Z,7.97
2023-04-12T07:01:22.493Z,8.01
2023-04-12T07:03:50.737Z,7.98
2023-04-12T07:06:25.202Z,8.01
2023-04-12T07:08:53.789Z,8.04
2023-04-12T07:11:25.332Z,8.11
2023-04-12T07:13:53.383Z,8.13
2023-04-12T07:16:21.306Z,8.13
2023-04-12T07:18:49.898Z,8.12
2023-04-12T07:21:18.205Z,8.12
2023-04-12T07:23:49.559Z,8.15
2023-04-12T07:26:19.289Z,8.21
2023-04-12T07:28:47.552Z,8.25
2023-04-12T07:31:16.019Z,8.28
2023-04-12T07:33:44.832Z,8.32
2023-04-12T07:36:13.223Z,8.29
2023-04-12T07:38:41.306Z,8.36
2023-04-12T07:41:09.531Z,8.42
2023-04-12T07:43:37.545Z,8.45
2023-04-12T07:46:08.744Z,8.50
2023-04-12T07:48:37.136Z,8.57
2023-04-12T07:51:05.965Z,8.66
2023-04-12T07:53:33.983Z,8.75
2023-04-12T07:56:05.183Z,8.81
2023-04-12T07:58:34.700Z,8.88
2023-04-12T08:01:02.705Z,8.95
2023-04-12T08:03:30.890Z,9.02
2023-04-12T08:05:59.367Z,9.16
2023-04-12T08:08:27.791Z,9.21
2023-04-12T08:10:56.197Z,9.22
2023-04-12T08:13:24.248Z,9.25
2023-04-12T08:15:52.863Z,9.30
2023-04-12T08:18:21.161Z,9.29
2023-04-12T08:20:49.372Z,9.30
2023-04-12T08:23:18.660Z,9.39
2023-04-12T08:25:46.769Z,9.47
2023-04-12T08:28:15.096Z,9.63
2023-04-12T08:30:43.936Z,9.81
2023-04-12T08:33:12.020Z,10.01
2023-04-12T08:35:40.406Z,10.12
2023-04-12T08:38:09.074Z,10.21
2023-04-12T08:40:37.595Z,10.30
2023-04-12T08:43:11.748Z,10.53
2023-04-12T08:45:39.713Z,10.68
2023-04-12T08:48:08.228Z,10.73
2023-04-12T08:50:36.601Z,10.63
2023-04-12T08:53:04.846Z,10.64
2023-04-12T08:55:33.499Z,10.53
2023-04-12T08:58:07.523Z,10.40
2023-04-12T09:00:37.206Z,10.43
2023-04-12T09:03:06.881Z,10.39
2023-04-12T09:05:35.361Z,10.36
2023-04-12T09:08:04.437Z,10.43
2023-04-12T09:10:37.144Z,10.50
2023-04-12T09:13:06.433Z,10.73
2023-04-12T09:15:35.322Z,11.00
2023-04-12T09:18:08.515Z,11.29
2023-04-12T09:20:37.968Z,11.56
2023-04-12T09:23:21.148Z,11.71
2023-04-12T09:25:52.897Z,11.94
2023-04-12T09:28:26.815Z,12.19
2023-04-12T09:30:58.699Z,12.24
2023-04-12T09:33:40.031Z,12.32
2023-04-12T09:36:14.678Z,12.47
2023-04-12T09:38:57.967Z,12.70
2023-04-12T09:41:31.003Z,12.70
2023-04-12T09:44:00.942Z,12.60
2023-04-12T09:46:29.897Z,12.61
2023-04-12T09:48:59.475Z,12.80
2023-04-12T09:51:36.620Z,13.02
2023-04-12T09:54:07.006Z,13.10
2023-04-12T09:56:37.056Z,13.26
2023-04-12T09:59:10.316Z,13.18
2023-04-12T10:01:42.354Z,13.39
2023-04-12T10:04:10.798Z,13.34
2023-04-12T10:06:39.147Z,13.29
2023-04-12T10:09:09.023Z,13.30
2023-04-12T10:11:40.735Z,13.49
2023-04-12T10:14:10.072Z,13.60
2023-04-12T10:16:41.259Z,13.88
2023-04-12T10:19:10.743Z,13.77
2023-04-12T10:21:39.186Z,13.84
2023-04-12T10:24:07.698Z,13.69
2023-04-12T10:26:36.508Z,13.64
2023-04-12T10:29:27.536Z,13.87
2023-04-12T10:32:19.549Z,13.64
2023-04-12T10:34:56.427Z,13.46
2023-04-12T10:38:01.107Z,13.47
2023-04-12T10:40:31.805Z,13.55
2023-04-12T10:43:26.406Z,13.59
2023-04-12T10:45:54.520Z,13.63
2023-04-12T10:48:39.749Z,13.91
2023-04-12T10:51:15.775Z,13.85
2023-04-12T10:53:44.860Z,13.85
2023-04-12T10:56:32.950Z,13.57
2023-04-12T10:59:03.464Z,13.70
2023-04-12T11:02:00.533Z,13.88
2023-04-12T11:04:28.814Z,13.85
2023-04-12T11:07:12.270Z,13.88
2023-04-12T11:09:51.181Z,13.90
2023-04-12T11:12:29.513Z,13.91
2023-04-12T11:15:02.130Z,13.95
2023-04-12T11:17:39.914Z,14.08
2023-04-12T11:20:12.678Z,13.87
2023-04-12T11:22:41.011Z,13.60
2023-04-12T11:25:14.502Z,13.49
2023-04-12T11:27:51.573Z,13.49
2023-04-12T11:30:20.872Z,13.63
2023-04-12T11:32:49.050Z,13.64
2023-04-12T11:35:17.401Z,13.87
2023-04-12T11:37:45.908Z,13.83
2023-04-12T11:40:14.700Z,13.66
2023-04-12T11:42:42.900Z,13.70
2023-04-12T11:45:16.977Z,13.57
2023-04-12T11:47:46.825Z,13.52
2023-04-12T11:50:29.834Z,13.49
2023-04-12T11:53:13.214Z,13.57
2023-04-12T11:55:47.594Z,13.77
2023-04-12T11:58:16.032Z,13.85
2023-04-12T12:00:47.493Z,13.56
2023-04-12T12:03:16.307Z,13.43
2023-04-12T12:05:44.922Z,13.42
2023-04-12T12:08:13.843Z,13.12
2023-04-12T12:10:46.992Z,12.98
2023-04-12T12:13:24.023Z,12.60
2023-04-12T12:15:55.146Z,12.12
2023-04-12T12:18:27.584Z,11.83
2023-04-12T12:20:55.964Z,11.53
2023-04-12T12:23:31.495Z,11.43
2023-04-12T12:26:18.904Z,11.44
2023-04-12T12:28:55.703Z,11.47
2023-04-12T12:31:31.333Z,11.59
2023-04-12T12:34:07.412Z,11.83
2023-04-12T12:36:38.876Z,12.12
2023-04-12T12:39:11.999Z,12.45
2023-04-12T12:41:41.121Z,12.67
2023-04-12T12:44:14.891Z,12.97
2023-04-12T12:49:13.764Z,13.59
2023-04-12T12:51:42.949Z,13.59
2023-04-12T12:54:11.101Z,13.57
2023-04-12T12:56:39.208Z,13.46
2023-04-12T12:59:09.671Z,13.45
2023-04-12T13:01:37.629Z,13.38
2023-04-12T13:04:05.864Z,13.30
2023-04-12T13:06:33.929Z,13.49
2023-04-12T13:09:02.144Z,13.94
2023-04-12T13:11:30.237Z,14.35
2023-04-12T13:13:58.228Z,14.53
2023-04-12T13:16:27.177Z,14.39
2023-04-12T13:18:55.823Z,14.30
2023-04-12T13:21:24.190Z,14.50
2023-04-12T13:23:52.215Z,14.57
2023-04-12T13:26:20.875Z,14.91
2023-04-12T13:28:48.805Z,14.84
2023-04-12T13:31:16.707Z,14.35
2023-04-12T13:34:00.706Z,14.19
2023-04-12T13:36:29.003Z,13.84
2023-04-12T13:38:58.875Z,13.97
2023-04-12T13:41:32.521Z,13.83
2023-04-12T13:44:01.820Z,13.95
2023-04-12T13:46:33.912Z,13.70
2023-04-12T13:49:02.372Z,13.52
2023-04-12T13:51:32.739Z,13.25
2023-04-12T13:56:44.236Z,13.42
2023-04-12T13:59:13.077Z,13.49
2023-04-12T14:01:43.076Z,13.36
2023-04-12T14:04:16.187Z,13.32
2023-04-12T14:09:31.442Z,13.50
2023-04-12T14:18:12.947Z,13.43
2023-04-12T14:20:41.571Z,13.35
2023-04-12T14:23:09.670Z,13.18
2023-04-12T14:25:40.909Z,13.05
2023-04-12T14:28:08.934Z,12.85
2023-04-12T14:30:37.306Z,12.66
2023-04-12T14:33:06.183Z,12.52
2023-04-12T14:35:34.441Z,12.40
2023-04-12T14:38:05.424Z,12.43
2023-04-12T14:40:47.176Z,12.24
2023-04-12T14:43:19.697Z,12.11
2023-04-12T14:45:48.594Z,11.99
2023-04-12T14:48:16.656Z,11.84
2023-04-12T14:50:44.545Z,11.80
2023-04-12T14:53:13.902Z,11.81
2023-04-12T14:55:42.187Z,11.77
2023-04-12T14:58:10.293Z,11.62
2023-04-12T15:00:43.311Z,11.53
2023-04-12T15:03:12.025Z,11.44
2023-04-12T15:05:40.441Z,11.56
2023-04-12T15:08:08.830Z,11.47
2023-04-12T15:10:37.607Z,11.44
2023-04-12T15:13:07.219Z,11.44
2023-04-12T15:15:38.960Z,11.36
2023-04-12T15:18:07.543Z,11.33
2023-04-12T15:20:35.968Z,11.35
2023-04-12T15:23:04.217Z,11.35
2023-04-12T15:25:33.478Z,11.28
2023-04-12T15:28:03.543Z,11.15
2023-04-12T15:30:31.979Z,11.16
2023-04-12T15:32:59.966Z,11.16
2023-04-12T15:38:19.045Z,11.01
2023-04-12T15:40:56.350Z,10.87
2023-04-12T15:43:25.175Z,10.91
2023-04-12T15:45:54.587Z,10.95
2023-04-12T15:48:24.559Z,10.97
2023-04-12T15:50:56.294Z,10.85
2023-04-12T15:53:26.526Z,10.81
2023-04-12T15:55:54.845Z,10.85
2023-04-12T16:01:07.263Z,10.81
2023-04-12T16:03:38.695Z,10.81
2023-04-12T16:06:08.853Z,10.88
2023-04-12T16:08:37.196Z,10.78
2023-04-12T16:11:06.287Z,10.75
2023-04-12T16:13:34.615Z,10.36
2023-04-12T16:16:04.441Z,10.11
2023-04-12T16:18:32.659Z,9.97
2023-04-12T16:21:00.496Z,9.90
2023-04-12T16:23:29.457Z,9.85
2023-04-12T16:25:59.892Z,9.90
2023-04-12T16:28:28.792Z,9.77
2023-04-12T16:31:01.067Z,9.74
2023-04-12T16:33:29.597Z,9.75
2023-04-12T16:36:01.043Z,9.66
2023-04-12T16:38:29.098Z,9.67
2023-04-12T16:40:57.493Z,9.71
2023-04-12T16:43:27.824Z,9.71
2023-04-12T16:45:56.762Z,9.71
2023-04-12T16:48:25.393Z,9.75
2023-04-12T16:50:54.094Z,9.67
2023-04-12T16:53:22.421Z,9.77
2023-04-12T16:55:50.633Z,9.90
2023-04-12T16:58:20.189Z,9.90
2023-04-12T17:00:49.536Z,10.13
2023-04-12T17:03:18.600Z,10.21
2023-04-12T17:05:49.011Z,10.12
2023-04-12T17:08:17.523Z,10.19
2023-04-12T17:10:45.725Z,10.09
2023-04-12T17:13:18.616Z,10.06
2023-04-12T17:15:48.657Z,9.95
2023-04-12T17:18:16.975Z,9.97
2023-04-12T17:20:46.609Z,9.88
2023-04-12T17:23:15.886Z,9.77
2023-04-12T17:28:27.432Z,9.57
2023-04-12T17:30:58.499Z,9.47
2023-04-12T17:33:28.516Z,9.42
2023-04-12T17:35:58.524Z,9.36
2023-04-12T17:38:26.976Z,9.25
2023-04-12T17:40:55.125Z,9.14
2023-04-12T17:43:29.065Z,9.08
2023-04-12T17:46:01.436Z,8.98
2023-04-12T17:48:30.746Z,8.98
2023-04-12T17:53:47.367Z,8.95
2023-04-12T17:56:16.181Z,8.94
2023-04-12T17:58:46.103Z,8.92
2023-04-12T18:01:15.584Z,8.87
2023-04-12T18:03:43.980Z,8.84
2023-04-12T18:06:14.141Z,8.83
2023-04-12T18:11:27.758Z,8.81
2023-04-12T18:13:56.946Z,8.80
2023-04-12T18:16:25.664Z,8.74
2023-04-12T18:18:55.486Z,8.67
2023-04-12T18:21:24.306Z,8.63
2023-04-12T18:23:52.709Z,8.53
2023-04-12T18:26:23.465Z,8.46
2023-04-12T18:28:52.057Z,8.32
2023-04-12T18:31:20.059Z,8.19
2023-04-12T18:33:48.386Z,8.09
2023-04-12T18:36:16.692Z,8.01
2023-04-12T18:38:45.413Z,7.88
2023-04-12T18:41:15.531Z,7.80
2023-04-12T18:43:44.291Z,7.70
2023-04-12T18:46:18.871Z,7.63
2023-04-12T18:48:49.122Z,7.57
2023-04-12T18:51:17.223Z,7.49
2023-04-12T18:53:45.684Z,7.49
2023-04-12T18:56:23.029Z,7.46
2023-04-12T18:58:55.665Z,7.36
2023-04-12T19:01:25.356Z,7.30
2023-04-12T19:03:53.797Z,7.28
2023-04-12T19:06:22.705Z,7.19
2023-04-12T19:08:51.743Z,7.19
2023-04-12T19:11:19.979Z,7.12
2023-04-12T19:13:48.617Z,7.07
2023-04-12T19:16:19.049Z,7.01
2023-04-12T19:18:47.140Z,6.97
2023-04-12T19:21:15.257Z,6.94
2023-04-12T19:23:44.396Z,6.90
2023-04-12T19:26:12.992Z,6.83
2023-04-12T19:28:41.710Z,6.76
2023-04-12T19:31:10.660Z,6.72
2023-04-12T19:33:41.870Z,6.69
2023-04-12T19:36:10.585Z,6.64
2023-04-12T19:38:41.714Z,6.58
2023-04-12T19:41:09.719Z,6.56
2023-04-12T19:43:37.805Z,6.53
2023-04-12T19:46:06.205Z,6.52
2023-04-12T19:48:34.968Z,6.45
2023-04-12T19:51:04.322Z,6.45
2023-04-12T19:53:33.426Z,6.42
2023-04-12T19:56:04.262Z,6.36
2023-04-12T19:58:32.376Z,6.32
2023-04-12T20:01:04.589Z,6.28
2023-04-12T20:03:32.968Z,6.22
2023-04-12T20:06:04.516Z,6.17
2023-04-12T20:08:33.248Z,6.14
2023-04-12T20:11:02.720Z,6.10
2023-04-12T20:13:31.428Z,6.10
2023-04-12T20:16:07.129Z,6.07
2023-04-12T20:18:34.987Z,6.00
2023-04-12T20:21:04.488Z,5.97
2023-04-12T20:23:35.068Z,5.94
2023-04-12T20:26:03.916Z,5.91
2023-04-12T20:28:32.012Z,5.90
2023-04-12T20:31:00.398Z,5.86
2023-04-12T20:33:30.940Z,5.83
2023-04-12T20:35:59.624Z,5.83
2023-04-12T20:38:30.728Z,5.78
2023-04-12T20:40:58.587Z,5.75
2023-04-12T20:43:27.174Z,5.70
2023-04-12T20:45:55.224Z,5.69
2023-04-12T20:48:23.345Z,5.70
2023-04-12T20:50:52.080Z,5.64
2023-04-12T20:53:19.935Z,5.63
2023-04-12T20:55:48.226Z,5.60
2023-04-12T20:58:17.080Z,5.64
2023-04-12T21:00:46.778Z,5.64
2023-04-12T21:03:15.610Z,5.60
2023-04-12T21:05:46.165Z,5.60
2023-04-12T21:08:15.741Z,5.60
2023-04-12T21:10:48.286Z,5.60
2023-04-12T21:13:21.939Z,5.62
2023-04-12T21:15:50.621Z,5.60
2023-04-12T21:18:23.697Z,5.60
2023-04-12T21:20:52.505Z,5.67
2023-04-12T21:23:20.732Z,5.70
2023-04-12T21:25:49.071Z,5.70
2023-04-12T21:28:17.549Z,5.74
2023-04-12T21:30:46.260Z,5.78
2023-04-12T21:33:14.540Z,5.80
2023-04-12T21:35:42.447Z,5.78
2023-04-12T21:38:12.837Z,5.75
2023-04-12T21:40:40.904Z,5.80
2023-04-12T21:43:08.885Z,5.81
2023-04-12T21:45:37.040Z,5.80
2023-04-12T21:48:05.290Z,5.77
2023-04-12T21:50:33.390Z,5.83
2023-04-12T21:53:01.265Z,5.81
2023-04-12T21:55:29.166Z,5.87
2023-04-12T21:57:56.951Z,5.91
2023-04-12T22:00:27.265Z,5.94
2023-04-12T22:02:55.590Z,5.94
2023-04-12T22:05:23.814Z,5.94
2023-04-12T22:07:51.733Z,5.94
2023-04-12T22:10:20.677Z,5.97
2023-04-12T22:12:50.114Z,6.00
2023-04-12T22:15:18.312Z,6.01
2023-04-12T22:17:46.578Z,6.11
2023-04-12T22:20:14.843Z,6.18
2023-04-12T22:22:43.748Z,6.28
2023-04-12T22:25:15.212Z,6.30
2023-04-12T22:27:46.728Z,6.35
2023-04-12T22:30:15.744Z,6.40
2023-04-12T22:32:43.906Z,6.43
2023-04-12T22:35:12.292Z,6.49
2023-04-12T22:37:41.500Z,6.52
2023-04-12T22:40:13.885Z,6.56
2023-04-12T22:42:46.364Z,6.57
2023-04-12T22:45:16.462Z,6.64
2023-04-12T22:47:45.003Z,6.67
2023-04-12T22:50:13.909Z,6.72
2023-04-12T22:52:42.107Z,6.76
2023-04-12T22:55:14.587Z,6.80
2023-04-12T22:57:42.969Z,6.94
2023-04-12T23:00:15.667Z,7.12
2023-04-12T23:02:46.376Z,7.19
2023-04-12T23:05:14.973Z,7.18
2023-04-12T23:07:43.773Z,7.14
2023-04-12T23:10:12.422Z,7.08
2023-04-12T23:12:40.625Z,7.04
2023-04-12T23:15:09.193Z,6.92
2023-04-12T23:17:37.579Z,6.87
2023-04-12T23:20:10.828Z,6.81
2023-04-12T23:22:57.314Z,6.72
2023-04-12T23:25:38.058Z,6.63
2023-04-12T23:28:14.688Z,6.62
2023-04-12T23:30:48.282Z,6.57
2023-04-12T23:33:21.006Z,6.53
2023-04-12T23:35:55.910Z,6.52
2023-04-12T23:38:32.754Z,6.50
2023-04-12T23:41:02.397Z,6.47
2023-04-12T23:43:32.636Z,6.50
2023-04-12T23:46:04.734Z,6.50
2023-04-12T23:48:33.167Z,6.47
2023-04-12T23:51:01.252Z,6.49
2023-04-12T23:53:29.213Z,6.42
2023-04-12T23:55:57.225Z,6.45
2023-04-12T23:58:27.807Z,6.40
